createdAt,value
2022-11-24T00:08:36.022Z,94.69
2022-11-24T00:20:36.505Z,94.58
2022-11-24T00:32:36.914Z,95.82
2022-11-24T00:38:36.946Z,95.56
2022-11-24T00:44:36.952Z,95.97
2022-11-24T00:50:36.905Z,96.00
2022-11-24T01:02:47.344Z,95.19
2022-11-24T01:14:47.707Z,95.28
2022-11-24T01:26:48.188Z,95.61
2022-11-24T01:38:48.576Z,95.85
2022-11-24T01:50:49.045Z,95.90
2022-11-24T02:02:49.701Z,96.22
2022-11-24T02:14:49.925Z,95.53
2022-11-24T02:20:49.945Z,95.95
2022-11-24T02:26:49.973Z,96.02
2022-11-24T02:32:49.937Z,96.05
2022-11-24T02:38:56.555Z,95.65
2022-11-24T02:44:56.601Z,95.54
2022-11-24T02:50:56.599Z,95.98
2022-11-24T02:56:56.609Z,95.31
2022-11-24T03:08:57.016Z,95.71
2022-11-24T03:14:57.006Z,95.72
2022-11-24T03:20:57.044Z,95.43
2022-11-24T03:32:57.511Z,95.93
2022-11-24T03:38:57.516Z,95.49
2022-11-24T03:44:57.492Z,95.98
2022-11-24T03:50:57.525Z,95.56
2022-11-24T03:57:04.528Z,95.27
2022-11-24T04:03:04.615Z,95.20
2022-11-24T04:09:04.628Z,95.38
2022-11-24T04:15:04.625Z,95.87
2022-11-24T04:21:04.653Z,96.41
2022-11-24T04:27:04.691Z,96.70
2022-11-24T04:33:04.684Z,96.81
2022-11-24T04:39:23.083Z,96.47
2022-11-24T04:45:04.726Z,96.61
2022-11-24T04:51:04.639Z,96.86
2022-11-24T04:57:05.125Z,97.12
2022-11-24T05:03:05.094Z,97.05
2022-11-24T05:09:05.076Z,96.85
2022-11-24T05:15:05.071Z,96.88
2022-11-24T05:21:05.076Z,97.58
2022-11-24T05:27:05.075Z,96.96
2022-11-24T05:33:05.081Z,97.64
2022-11-24T05:39:05.092Z,97.26
2022-11-24T05:45:05.091Z,97.10
2022-11-24T05:51:09.094Z,97.04
2022-11-24T05:57:05.066Z,97.33
2022-11-24T06:03:05.272Z,97.09
2022-11-24T06:09:05.081Z,96.61
2022-11-24T06:15:05.089Z,97.28
2022-11-24T06:21:10.645Z,96.87
2022-11-24T06:27:05.078Z,97.04
2022-11-24T06:33:05.110Z,97.14
2022-11-24T06:39:05.082Z,97.44
2022-11-24T06:45:08.998Z,97.07
2022-11-24T06:51:05.015Z,96.79
2022-11-24T06:57:05.065Z,97.10
2022-11-24T07:03:05.128Z,96.90
2022-11-24T07:09:05.058Z,96.18
2022-11-24T07:15:05.089Z,96.54
2022-11-24T07:21:05.062Z,96.64
2022-11-24T07:27:05.083Z,96.41
2022-11-24T07:33:05.074Z,96.50
2022-11-24T07:39:05.016Z,96.38
2022-11-24T07:45:05.109Z,96.29
2022-11-24T07:51:05.066Z,95.66
2022-11-24T07:57:05.059Z,95.05
2022-11-24T08:03:05.030Z,95.59
2022-11-24T08:09:05.049Z,94.99
2022-11-24T08:15:09.532Z,93.54
2022-11-24T08:21:05.055Z,93.87
2022-11-24T08:27:05.067Z,93.03
2022-11-24T08:33:05.113Z,94.15
2022-11-24T08:39:05.071Z,93.24
2022-11-24T08:45:19.968Z,90.10
2022-11-24T08:51:05.053Z,83.30
2022-11-24T08:57:05.087Z,83.71
2022-11-24T09:21:05.048Z,81.15
2022-11-24T09:27:05.029Z,79.95
2022-11-24T09:33:05.015Z,79.67
2022-11-24T09:39:05.022Z,78.47
2022-11-24T09:45:05.093Z,79.99
2022-11-24T09:51:05.041Z,78.08
2022-11-24T09:57:05.027Z,81.26
2022-11-24T10:03:05.008Z,83.11
2022-11-24T10:09:05.007Z,80.69
2022-11-24T10:15:05.076Z,80.43
2022-11-24T10:21:05.070Z,79.47
2022-11-24T10:27:05.077Z,80.00
2022-11-24T10:33:05.047Z,78.18
2022-11-24T10:39:05.070Z,80.21
2022-11-24T10:45:05.050Z,78.80
2022-11-24T10:51:05.078Z,80.00
2022-11-24T10:57:05.009Z,77.12
2022-11-24T11:03:05.103Z,78.65
2022-11-24T11:09:05.074Z,77.80
2022-11-24T11:15:05.061Z,79.46
2022-11-24T11:21:05.103Z,77.79
2022-11-24T11:27:05.045Z,77.57
2022-11-24T11:39:05.005Z,73.62
2022-11-24T11:45:05.058Z,74.94
2022-11-24T11:51:22.805Z,76.60
2022-11-24T11:57:05.083Z,75.57
2022-11-24T12:03:05.167Z,74.42
2022-11-24T12:09:19.813Z,75.27
2022-11-24T12:15:10.548Z,77.32
2022-11-24T12:21:05.004Z,77.19
2022-11-24T12:27:05.034Z,72.80
2022-11-24T12:33:05.032Z,78.00
2022-11-24T12:39:05.022Z,77.58
2022-11-24T12:45:05.067Z,78.58
2022-11-24T12:51:05.012Z,78.90
2022-11-24T12:57:05.017Z,77.64
2022-11-24T13:03:05.150Z,78.13
2022-11-24T13:09:05.078Z,78.89
2022-11-24T13:15:05.026Z,77.62
2022-11-24T13:21:05.044Z,75.11
2022-11-24T13:27:05.024Z,75.22
2022-11-24T13:33:05.017Z,74.75
2022-11-24T13:39:05.085Z,74.43
2022-11-24T13:45:05.123Z,75.93
2022-11-24T13:51:05.013Z,74.87
2022-11-24T13:57:05.050Z,75.78
2022-11-24T14:03:05.115Z,73.38
2022-11-24T14:09:05.057Z,74.99
2022-11-24T14:15:05.084Z,73.78
2022-11-24T14:21:05.018Z,73.30
2022-11-24T14:27:05.059Z,72.45
2022-11-24T14:33:05.066Z,71.86
2022-11-24T14:39:05.158Z,73.56
2022-11-24T14:45:05.033Z,73.94
2022-11-24T14:51:05.023Z,79.81
2022-11-24T14:57:05.022Z,83.62
2022-11-24T15:03:05.039Z,84.79
2022-11-24T15:09:05.045Z,86.99
2022-11-24T15:15:05.031Z,87.11
2022-11-24T15:21:05.075Z,87.22
2022-11-24T15:27:05.030Z,88.84
2022-11-24T15:33:05.036Z,89.62
2022-11-24T15:39:05.059Z,89.91
2022-11-24T15:45:05.037Z,92.12
2022-11-24T15:51:05.520Z,91.94
2022-11-24T15:57:05.133Z,90.78
2022-11-24T16:03:38.396Z,90.74
2022-11-24T16:09:05.108Z,92.26
2022-11-24T16:15:05.191Z,91.27
2022-11-24T16:21:05.120Z,90.85
2022-11-24T16:27:05.018Z,89.54
2022-11-24T16:33:05.060Z,89.72
2022-11-24T16:39:05.054Z,90.72
2022-11-24T16:45:05.030Z,91.81
2022-11-24T16:51:05.338Z,92.51
2022-11-24T16:57:06.393Z,91.76
2022-11-24T17:03:05.066Z,90.29
2022-11-24T17:09:05.038Z,90.85
2022-11-24T17:15:32.539Z,90.11
2022-11-24T17:21:09.469Z,90.36
2022-11-24T17:27:05.202Z,91.86
2022-11-24T17:33:05.115Z,92.59
2022-11-24T17:39:05.119Z,93.62
2022-11-24T17:45:05.033Z,92.80
2022-11-24T17:51:05.004Z,92.58
2022-11-24T17:57:05.307Z,92.91
2022-11-24T18:03:05.044Z,92.53
2022-11-24T18:09:05.046Z,92.47
2022-11-24T18:15:05.000Z,91.59
2022-11-24T18:21:05.053Z,92.37
2022-11-24T18:27:05.007Z,93.10
2022-11-24T18:33:05.039Z,93.11
2022-11-24T18:39:04.987Z,93.74
2022-11-24T18:45:05.020Z,93.33
2022-11-24T18:51:04.978Z,93.75
2022-11-24T18:57:05.001Z,94.11
2022-11-24T19:03:05.028Z,95.34
2022-11-24T19:09:05.035Z,95.04
2022-11-24T19:15:05.022Z,95.05
2022-11-24T19:21:05.025Z,95.32
2022-11-24T19:27:05.047Z,95.44
2022-11-24T19:33:05.049Z,95.95
2022-11-24T19:39:05.377Z,94.70
2022-11-24T19:45:05.231Z,94.42
2022-11-24T19:51:05.033Z,94.19
2022-11-24T19:57:05.055Z,94.44
2022-11-24T20:03:05.065Z,94.35
2022-11-24T20:09:05.074Z,94.18
2022-11-24T20:15:05.064Z,94.29
2022-11-24T20:21:05.054Z,95.46
2022-11-24T20:27:05.062Z,95.22
2022-11-24T20:33:05.289Z,95.47
2022-11-24T20:39:05.026Z,95.77
2022-11-24T20:45:05.022Z,94.73
2022-11-24T20:51:05.062Z,95.56
2022-11-24T20:57:05.032Z,95.42
2022-11-24T21:03:05.043Z,96.14
2022-11-24T21:09:05.108Z,95.56
2022-11-24T21:15:05.017Z,95.49
2022-11-24T21:21:05.043Z,96.41
2022-11-24T21:27:05.025Z,95.59
2022-11-24T21:33:05.031Z,94.88
2022-11-24T21:39:05.084Z,95.98
2022-11-24T21:45:05.044Z,95.07
2022-11-24T21:51:04.988Z,95.87
2022-11-24T21:57:05.006Z,95.82
2022-11-24T22:03:05.022Z,96.23
2022-11-24T22:27:05.025Z,96.81
2022-11-24T22:39:05.021Z,95.95
2022-11-24T22:45:05.037Z,94.88
2022-11-24T22:51:04.989Z,95.21
2022-11-24T22:57:04.994Z,95.51
2022-11-24T23:03:05.138Z,95.34
2022-11-24T23:09:04.966Z,95.71
2022-11-24T23:15:05.030Z,95.33
2022-11-24T23:21:05.014Z,95.07
2022-11-24T23:27:05.022Z,94.71
2022-11-24T23:33:05.020Z,96.19
2022-11-24T23:39:05.016Z,96.85
2022-11-24T23:45:04.972Z,95.89
2022-11-24T23:51:05.000Z,97.08
2022-11-24T23:57:05.048Z,96.78
